createdAt,value
2019-05-19T00:01:35.793Z,17.10
2019-05-19T00:04:05.562Z,19.60
2019-05-19T00:06:35.350Z,23.15
2019-05-19T00:09:05.782Z,25.92
2019-05-19T00:11:35.561Z,20.43
2019-05-19T00:14:05.470Z,19.27
2019-05-19T00:16:35.242Z,18.00
2019-05-19T00:19:05.064Z,16.55
2019-05-19T00:21:34.810Z,20.32
2019-05-19T00:24:04.658Z,17.07
2019-05-19T00:26:34.415Z,18.67
2019-05-19T00:29:04.182Z,18.05
2019-05-19T00:31:33.972Z,18.45
2019-05-19T00:34:03.721Z,20.00
2019-05-19T00:36:33.579Z,25.45
2019-05-19T00:39:04.198Z,21.82
2019-05-19T00:41:34.012Z,22.27
2019-05-19T00:44:03.788Z,24.43
2019-05-19T00:46:33.555Z,25.50
2019-05-19T00:49:03.562Z,21.17
2019-05-19T00:51:33.745Z,20.88
2019-05-19T00:54:03.646Z,21.00
2019-05-19T00:56:34.301Z,20.12
2019-05-19T00:59:05.351Z,20.37
2019-05-19T01:01:35.117Z,16.35
2019-05-19T01:04:04.923Z,13.43
2019-05-19T01:06:34.823Z,12.03
2019-05-19T01:09:05.737Z,11.10
2019-05-19T01:11:35.499Z,15.13
2019-05-19T01:14:05.768Z,18.57
2019-05-19T01:16:35.538Z,13.50
2019-05-19T01:19:05.412Z,17.82
2019-05-19T01:21:35.907Z,13.35
2019-05-19T01:24:05.705Z,13.70
2019-05-19T01:26:35.507Z,14.35
2019-05-19T01:29:05.412Z,14.05
2019-05-19T01:31:35.228Z,14.23
2019-05-19T01:34:05.089Z,13.08
2019-05-19T01:36:34.864Z,9.88
2019-05-19T01:39:05.483Z,11.08
2019-05-19T01:41:35.275Z,12.43
2019-05-19T01:44:05.081Z,13.25
2019-05-19T01:46:34.857Z,14.00
2019-05-19T01:49:04.669Z,19.62
2019-05-19T01:51:34.427Z,21.62
2019-05-19T01:54:04.211Z,17.70
2019-05-19T01:56:33.974Z,20.68
2019-05-19T01:59:03.805Z,16.50
2019-05-19T02:01:33.577Z,18.40
2019-05-19T02:04:03.398Z,16.42
2019-05-19T02:06:33.173Z,22.22
2019-05-19T02:09:02.986Z,19.37
2019-05-19T02:11:32.807Z,15.53
2019-05-19T02:14:02.554Z,16.55
2019-05-19T02:16:32.352Z,15.00
2019-05-19T02:19:02.139Z,17.40
2019-05-19T02:21:31.930Z,18.92
2019-05-19T02:24:01.719Z,17.12
2019-05-19T02:26:31.532Z,16.48
2019-05-19T02:29:01.276Z,15.55
2019-05-19T02:31:31.063Z,16.42
2019-05-19T02:34:00.836Z,12.95
2019-05-19T02:36:30.643Z,14.50
2019-05-19T02:39:00.433Z,18.45
2019-05-19T02:41:32.225Z,17.80
2019-05-19T02:44:03.289Z,16.17
2019-05-19T02:46:34.903Z,15.13
2019-05-19T02:49:05.986Z,13.98
2019-05-19T02:51:36.348Z,13.03
2019-05-19T02:54:07.601Z,9.33
2019-05-19T02:56:37.680Z,8.85
2019-05-19T02:59:08.172Z,11.85
2019-05-19T03:01:56.852Z,10.50
2019-05-19T03:04:26.665Z,10.70
2019-05-19T03:06:56.423Z,13.43
2019-05-19T03:09:26.312Z,9.90
2019-05-19T03:11:56.063Z,11.97
2019-05-19T03:14:25.939Z,10.88
2019-05-19T03:16:55.760Z,13.53
2019-05-19T03:19:25.556Z,16.30
2019-05-19T03:21:56.063Z,15.60
2019-05-19T03:24:25.847Z,15.37
2019-05-19T03:26:55.640Z,19.10
2019-05-19T03:29:30.292Z,18.80
2019-05-19T03:32:12.323Z,15.10
2019-05-19T03:34:41.918Z,15.95
2019-05-19T03:37:11.696Z,16.65
2019-05-19T03:39:41.495Z,11.65
2019-05-19T03:42:11.302Z,15.03
2019-05-19T03:44:41.082Z,13.72
2019-05-19T03:47:10.934Z,11.97
2019-05-19T03:49:40.718Z,13.48
2019-05-19T03:52:10.506Z,13.00
2019-05-19T03:54:40.257Z,13.80
2019-05-19T03:57:10.062Z,13.00
2019-05-19T03:59:39.847Z,14.53
2019-05-19T04:02:09.683Z,16.00
2019-05-19T04:04:39.427Z,12.47
2019-05-19T04:07:09.229Z,18.20
2019-05-19T04:09:38.999Z,21.90
2019-05-19T04:12:08.818Z,17.55
2019-05-19T04:14:38.605Z,19.77
2019-05-19T04:17:08.413Z,13.15
2019-05-19T04:19:38.167Z,18.87
2019-05-19T04:22:07.953Z,15.60
2019-05-19T04:24:41.030Z,19.15
2019-05-19T04:27:10.796Z,14.07
2019-05-19T04:29:40.597Z,13.90
2019-05-19T04:32:10.358Z,29.50
2019-05-19T04:34:40.180Z,25.92
2019-05-19T04:37:09.966Z,21.65
2019-05-19T04:39:39.780Z,23.07
2019-05-19T04:42:09.529Z,27.32
2019-05-19T04:44:39.340Z,24.75
2019-05-19T04:47:09.105Z,27.10
2019-05-19T04:49:38.878Z,24.60
2019-05-19T04:52:08.689Z,28.70
2019-05-19T04:54:38.466Z,27.73
2019-05-19T04:57:08.279Z,30.45
2019-05-19T04:59:38.108Z,30.65
2019-05-19T05:02:07.913Z,32.88
2019-05-19T05:04:37.722Z,30.95
2019-05-19T05:07:07.535Z,31.45
2019-05-19T05:09:37.293Z,32.63
2019-05-19T05:12:07.098Z,32.33
2019-05-19T05:14:36.862Z,29.00
2019-05-19T05:17:06.667Z,30.52
2019-05-19T05:19:36.454Z,30.32
2019-05-19T05:22:21.018Z,29.80
2019-05-19T05:24:37.689Z,26.97
2019-05-19T05:27:07.472Z,27.45
2019-05-19T05:29:37.271Z,26.02
2019-05-19T05:32:07.092Z,25.27
2019-05-19T05:34:36.872Z,27.37
2019-05-19T05:37:06.688Z,25.23
2019-05-19T05:39:36.467Z,22.93
2019-05-19T05:42:06.283Z,24.92
2019-05-19T05:44:36.058Z,24.85
2019-05-19T05:47:05.814Z,28.23
2019-05-19T05:49:35.627Z,25.50
2019-05-19T05:52:05.504Z,25.92
2019-05-19T05:54:35.309Z,23.10
2019-05-19T05:57:05.179Z,26.50
2019-05-19T05:59:35.003Z,24.80
2019-05-19T06:02:04.778Z,24.47
2019-05-19T06:04:34.590Z,23.50
2019-05-19T06:07:04.356Z,23.15
2019-05-19T06:09:34.149Z,27.95
2019-05-19T06:12:03.915Z,24.32
2019-05-19T06:14:33.719Z,27.13
2019-05-19T06:17:03.494Z,24.40
2019-05-19T06:19:33.314Z,23.10
2019-05-19T06:22:03.084Z,26.00
2019-05-19T06:24:32.917Z,26.37
2019-05-19T06:27:02.678Z,24.52
2019-05-19T06:29:32.461Z,23.90
2019-05-19T06:32:08.898Z,25.27
2019-05-19T06:34:38.770Z,28.80
2019-05-19T06:37:08.544Z,25.32
2019-05-19T06:39:38.308Z,26.73
2019-05-19T06:42:14.678Z,26.25
2019-05-19T06:44:44.457Z,29.02
2019-05-19T06:47:14.244Z,24.77
2019-05-19T06:49:43.999Z,23.75
2019-05-19T06:52:13.796Z,24.87
2019-05-19T06:54:43.543Z,24.23
2019-05-19T06:57:13.370Z,26.33
2019-05-19T06:59:43.175Z,24.40
2019-05-19T07:02:13.029Z,25.12
2019-05-19T07:04:42.786Z,29.25
2019-05-19T07:07:12.659Z,24.95
2019-05-19T07:09:57.099Z,23.52
2019-05-19T07:12:13.896Z,26.57
2019-05-19T07:14:43.661Z,26.42
2019-05-19T07:17:13.483Z,25.10
2019-05-19T07:19:43.240Z,27.73
2019-05-19T07:22:13.049Z,25.15
2019-05-19T07:24:42.841Z,25.90
2019-05-19T07:27:12.711Z,22.90
2019-05-19T07:29:42.467Z,23.95
2019-05-19T07:32:12.218Z,26.05
2019-05-19T07:34:42.061Z,22.77
2019-05-19T07:37:11.850Z,26.17
2019-05-19T07:39:41.658Z,25.70
2019-05-19T07:42:11.435Z,27.42
2019-05-19T07:44:41.243Z,26.97
2019-05-19T07:47:11.062Z,24.92
2019-05-19T07:49:40.888Z,26.50
2019-05-19T07:52:10.680Z,25.12
2019-05-19T07:54:40.489Z,23.02
2019-05-19T07:57:10.496Z,22.80
2019-05-19T07:59:40.328Z,26.33
2019-05-19T08:02:10.068Z,24.40
2019-05-19T08:04:40.275Z,21.10
2019-05-19T08:07:10.103Z,23.67
2019-05-19T08:09:39.966Z,21.17
2019-05-19T08:12:09.766Z,19.12
2019-05-19T08:14:39.842Z,20.35
2019-05-19T08:17:09.924Z,19.42
2019-05-19T08:19:41.021Z,56.77
2019-05-19T08:24:39.625Z,20.45
2019-05-19T08:27:09.749Z,19.48
2019-05-19T08:29:40.643Z,17.62
2019-05-19T08:32:10.799Z,18.57
2019-05-19T08:34:41.437Z,21.27
2019-05-19T08:37:11.228Z,18.45
2019-05-19T08:39:41.048Z,17.90
2019-05-19T08:42:11.349Z,17.73
2019-05-19T08:44:43.265Z,16.03
2019-05-19T08:47:13.724Z,15.98
2019-05-19T08:49:45.913Z,18.35
2019-05-19T08:52:17.955Z,17.37
2019-05-19T08:54:48.178Z,19.62
2019-05-19T08:57:18.542Z,16.15
2019-05-19T08:59:48.825Z,13.62
2019-05-19T09:02:19.687Z,15.23
2019-05-19T09:04:50.141Z,14.05
2019-05-19T09:07:21.837Z,14.58
2019-05-19T09:09:52.499Z,13.68
2019-05-19T09:12:23.134Z,12.78
2019-05-19T09:14:53.284Z,15.53
2019-05-19T09:17:25.136Z,12.73
2019-05-19T09:19:56.675Z,15.10
2019-05-19T09:22:28.068Z,12.33
2019-05-19T09:25:00.008Z,15.25
2019-05-19T09:27:31.396Z,12.95
2019-05-19T09:30:03.409Z,14.15
2019-05-19T09:32:35.503Z,13.60
2019-05-19T09:35:07.457Z,11.90
2019-05-19T09:37:39.206Z,12.25
2019-05-19T09:40:11.867Z,10.88
2019-05-19T09:42:46.057Z,14.70
2019-05-19T09:45:19.205Z,14.20
2019-05-19T09:47:51.411Z,12.70
2019-05-19T09:50:23.610Z,13.48
2019-05-19T09:52:55.650Z,11.25
2019-05-19T09:55:27.604Z,12.47
2019-05-19T09:57:59.939Z,13.35
2019-05-19T10:00:32.424Z,11.38
2019-05-19T10:03:04.549Z,10.48
2019-05-19T10:05:36.508Z,11.03
2019-05-19T10:08:08.547Z,11.35
2019-05-19T10:11:31.319Z,14.70
2019-05-19T10:14:01.901Z,14.35
2019-05-19T10:16:32.911Z,9.18
2019-05-19T10:21:35.048Z,10.63
2019-05-19T11:32:46.803Z,10.13
2019-05-19T11:35:19.054Z,9.20
2019-05-19T11:37:52.334Z,10.90
2019-05-19T11:40:26.067Z,7.28
2019-05-19T11:43:00.467Z,7.50
2019-05-19T11:45:33.552Z,8.05
2019-05-19T11:48:07.162Z,8.03
2019-05-19T11:50:42.479Z,16.87
2019-05-19T11:53:16.675Z,7.22
2019-05-19T11:55:49.112Z,8.78
2019-05-19T11:58:21.520Z,8.20
2019-05-19T12:00:53.828Z,7.67
2019-05-19T12:03:27.627Z,11.00
2019-05-19T12:06:00.130Z,8.23
2019-05-19T12:08:33.667Z,7.85
2019-05-19T12:11:06.250Z,8.40
2019-05-19T12:13:38.634Z,9.85
2019-05-19T12:16:10.990Z,8.15
2019-05-19T12:18:43.878Z,8.05
2019-05-19T12:21:16.170Z,8.93
2019-05-19T12:23:48.587Z,7.60
2019-05-19T12:26:23.544Z,11.57
2019-05-19T12:28:55.396Z,8.23
2019-05-19T12:31:27.747Z,11.43
2019-05-19T12:34:00.348Z,6.95
2019-05-19T12:36:37.434Z,8.60
2019-05-19T12:39:10.333Z,11.97
2019-05-19T12:41:42.922Z,10.08
2019-05-19T12:44:16.731Z,8.00
2019-05-19T12:46:48.874Z,9.28
2019-05-19T12:49:21.095Z,9.85
2019-05-19T12:51:52.753Z,9.35
2019-05-19T12:54:24.988Z,7.87
2019-05-19T12:56:57.178Z,8.83
2019-05-19T12:59:29.354Z,8.78
2019-05-19T13:02:01.467Z,7.10
2019-05-19T13:04:33.785Z,8.45
2019-05-19T13:07:05.797Z,9.53
2019-05-19T13:09:38.076Z,8.90
2019-05-19T13:12:10.297Z,10.80
2019-05-19T13:14:42.524Z,10.82
2019-05-19T13:17:16.640Z,7.70
2019-05-19T13:19:51.660Z,8.18
2019-05-19T13:22:23.359Z,8.30
2019-05-19T13:24:55.495Z,7.42
2019-05-19T13:27:27.372Z,9.80
2019-05-19T13:29:58.860Z,7.78
2019-05-19T13:32:31.110Z,8.70
2019-05-19T13:35:03.565Z,8.35
2019-05-19T13:37:37.365Z,7.00
2019-05-19T13:40:09.845Z,7.33
2019-05-19T13:42:41.954Z,8.40
2019-05-19T13:45:14.384Z,7.42
2019-05-19T13:47:46.207Z,7.58
2019-05-19T13:50:18.401Z,6.80
2019-05-19T13:52:51.298Z,7.85
2019-05-19T13:55:23.727Z,7.85
2019-05-19T13:57:55.887Z,8.33
2019-05-19T14:00:28.060Z,7.40
2019-05-19T14:03:00.328Z,8.93
2019-05-19T14:05:32.141Z,9.58
2019-05-19T14:08:04.274Z,8.20
2019-05-19T14:10:36.636Z,8.43
2019-05-19T14:13:08.921Z,11.10
2019-05-19T14:15:40.967Z,9.03
2019-05-19T14:18:12.999Z,7.28
2019-05-19T14:20:45.345Z,10.80
2019-05-19T14:23:17.466Z,6.70
2019-05-19T14:25:49.822Z,7.85
2019-05-19T14:28:21.922Z,7.05
2019-05-19T14:30:54.091Z,11.18
2019-05-19T14:33:26.248Z,6.60
2019-05-19T14:35:58.663Z,8.85
2019-05-19T14:38:30.918Z,8.48
2019-05-19T14:41:06.016Z,9.05
2019-05-19T14:43:38.239Z,6.62
2019-05-19T14:46:10.615Z,7.33
2019-05-19T14:48:42.803Z,6.87
2019-05-19T14:51:15.036Z,5.87
2019-05-19T14:53:47.206Z,6.78
2019-05-19T14:56:20.503Z,7.10
2019-05-19T14:58:52.389Z,6.17
2019-05-19T15:01:24.614Z,7.17
2019-05-19T15:03:56.950Z,6.87
2019-05-19T15:06:29.329Z,7.30
2019-05-19T15:09:01.643Z,8.38
2019-05-19T15:11:33.882Z,9.38
2019-05-19T15:14:06.175Z,6.95
2019-05-19T15:16:38.535Z,8.00
2019-05-19T15:19:10.712Z,6.50
2019-05-19T15:21:43.601Z,7.70
2019-05-19T15:24:15.880Z,7.58
2019-05-19T15:26:48.277Z,6.62
2019-05-19T15:29:20.473Z,8.40
2019-05-19T15:31:52.648Z,6.47
2019-05-19T15:34:24.675Z,6.78
2019-05-19T15:36:57.117Z,7.42
2019-05-19T15:39:29.385Z,6.22
2019-05-19T15:42:01.712Z,8.40
2019-05-19T15:44:34.058Z,6.50
2019-05-19T15:47:07.048Z,7.97
2019-05-19T15:49:39.320Z,6.67
2019-05-19T15:52:12.518Z,7.20
2019-05-19T15:54:44.628Z,6.53
2019-05-19T15:57:17.038Z,6.47
2019-05-19T15:59:49.308Z,6.80
2019-05-19T16:02:22.547Z,8.28
2019-05-19T16:04:54.818Z,7.12
2019-05-19T16:07:27.179Z,8.18
2019-05-19T16:09:59.807Z,6.75
2019-05-19T16:12:32.095Z,7.28
2019-05-19T16:15:04.390Z,9.28
2019-05-19T16:17:36.672Z,6.53
2019-05-19T16:20:08.969Z,6.65
2019-05-19T16:22:41.297Z,7.95
2019-05-19T16:25:13.879Z,8.73
2019-05-19T16:27:46.328Z,7.33
2019-05-19T16:30:18.703Z,8.23
2019-05-19T16:32:50.934Z,7.03
2019-05-19T16:35:23.328Z,6.10
2019-05-19T16:37:55.518Z,8.83
2019-05-19T16:40:27.625Z,7.28
2019-05-19T16:43:02.425Z,8.43
2019-05-19T16:45:34.595Z,6.42
2019-05-19T16:48:07.040Z,7.87
2019-05-19T16:50:42.252Z,8.18
2019-05-19T16:53:15.946Z,6.75
2019-05-19T16:55:48.782Z,11.93
2019-05-19T16:58:21.927Z,7.12
2019-05-19T17:00:55.191Z,7.05
2019-05-19T17:03:27.696Z,7.33
2019-05-19T17:06:00.047Z,9.68
2019-05-19T17:08:32.546Z,7.83
2019-05-19T17:11:18.135Z,9.25
2019-05-19T17:13:41.348Z,12.00
2019-05-19T17:16:13.721Z,7.37
2019-05-19T17:18:46.132Z,7.15
2019-05-19T17:21:18.369Z,7.53
2019-05-19T17:23:50.819Z,8.38
2019-05-19T17:26:23.184Z,7.17
2019-05-19T17:29:00.663Z,7.67
2019-05-19T17:31:29.513Z,6.90
2019-05-19T17:34:02.530Z,7.85
2019-05-19T17:36:35.095Z,9.03
2019-05-19T17:39:09.760Z,10.70
2019-05-19T17:41:42.171Z,9.08
2019-05-19T17:44:17.376Z,7.45
2019-05-19T17:46:49.776Z,16.85
2019-05-19T17:49:24.232Z,9.70
2019-05-19T17:51:56.610Z,8.15
2019-05-19T17:54:29.168Z,8.35
2019-05-19T17:57:04.952Z,8.53
2019-05-19T17:59:40.164Z,8.13
2019-05-19T18:02:20.093Z,6.87
2019-05-19T18:04:53.441Z,11.60
2019-05-19T18:07:25.827Z,8.15
2019-05-19T18:10:02.570Z,8.80
2019-05-19T18:12:37.310Z,8.93
2019-05-19T18:15:10.711Z,13.13
2019-05-19T18:17:44.400Z,8.55
2019-05-19T18:20:23.753Z,8.65
2019-05-19T18:22:51.480Z,9.88
2019-05-19T18:25:24.046Z,11.60
2019-05-19T18:27:56.799Z,10.05
2019-05-19T18:30:29.819Z,12.15
2019-05-19T18:33:06.129Z,11.78
2019-05-19T18:35:39.782Z,9.20
2019-05-19T18:38:15.912Z,8.38
2019-05-19T18:40:48.919Z,12.20
2019-05-19T18:43:22.744Z,13.80
2019-05-19T18:45:56.682Z,23.22
2019-05-19T18:48:31.366Z,12.05
2019-05-19T18:51:04.705Z,10.08
2019-05-19T18:53:37.591Z,10.15
2019-05-19T18:56:10.127Z,13.93
2019-05-19T18:58:43.997Z,8.68
2019-05-19T19:01:17.007Z,9.60
2019-05-19T19:03:49.439Z,13.10
2019-05-19T19:06:22.044Z,10.75
2019-05-19T19:08:54.391Z,11.85
2019-05-19T19:11:26.973Z,10.85
2019-05-19T19:14:00.671Z,11.03
2019-05-19T19:16:34.265Z,10.85
2019-05-19T19:19:07.181Z,11.57
2019-05-19T19:21:39.679Z,13.62
2019-05-19T19:24:12.408Z,19.15
2019-05-19T19:26:44.878Z,18.12
2019-05-19T19:29:17.849Z,12.60
2019-05-19T19:31:52.294Z,14.63
2019-05-19T19:34:28.559Z,12.80
2019-05-19T19:37:01.172Z,13.50
2019-05-19T19:39:33.594Z,14.45
2019-05-19T19:42:08.567Z,13.35
2019-05-19T19:45:00.850Z,13.18
2019-05-19T19:47:35.071Z,14.65
2019-05-19T19:50:07.781Z,10.70
2019-05-19T19:52:40.815Z,13.45
2019-05-19T19:55:13.182Z,12.90
2019-05-19T19:57:45.618Z,14.35
2019-05-19T20:00:24.626Z,11.25
2019-05-19T20:03:00.428Z,11.78
2019-05-19T20:05:33.610Z,12.85
2019-05-19T20:08:07.918Z,12.33
2019-05-19T20:10:40.378Z,11.50
2019-05-19T20:13:13.638Z,12.33
2019-05-19T20:15:46.026Z,11.97
2019-05-19T20:18:20.301Z,14.47
2019-05-19T20:20:55.111Z,12.18
2019-05-19T20:23:27.623Z,12.73
2019-05-19T20:25:59.992Z,16.95
2019-05-19T20:28:33.190Z,11.88
2019-05-19T20:31:08.861Z,14.18
2019-05-19T20:33:41.267Z,15.93
2019-05-19T20:36:13.537Z,16.32
2019-05-19T20:38:46.114Z,13.32
2019-05-19T20:41:18.418Z,15.60
2019-05-19T20:43:51.264Z,14.43
2019-05-19T20:46:23.576Z,15.60
2019-05-19T20:48:58.402Z,13.35
2019-05-19T20:51:32.019Z,14.03
2019-05-19T20:54:04.244Z,13.45
2019-05-19T20:56:36.413Z,14.80
2019-05-19T20:59:08.619Z,12.35
2019-05-19T21:01:40.795Z,16.50
2019-05-19T21:04:12.674Z,11.65
2019-05-19T21:06:43.212Z,12.93
2019-05-19T21:09:14.663Z,14.35
2019-05-19T21:11:44.531Z,13.60
2019-05-19T21:14:14.286Z,13.28
2019-05-19T21:16:44.481Z,14.10
2019-05-19T21:19:14.292Z,13.48
2019-05-19T21:21:44.090Z,14.20
2019-05-19T21:24:13.889Z,16.50
2019-05-19T21:26:43.698Z,14.68
2019-05-19T21:29:13.454Z,14.07
2019-05-19T21:31:43.306Z,16.45
2019-05-19T21:34:13.097Z,14.75
2019-05-19T21:36:42.897Z,14.78
2019-05-19T21:39:12.704Z,14.58
2019-05-19T21:41:42.586Z,18.30
2019-05-19T21:44:12.374Z,14.58
2019-05-19T21:46:42.195Z,16.30
2019-05-19T21:49:11.940Z,19.52
2019-05-19T21:51:41.725Z,16.45
2019-05-19T21:54:11.496Z,18.62
2019-05-19T21:56:41.273Z,16.50
2019-05-19T21:59:11.171Z,18.00
2019-05-19T22:01:41.032Z,17.90
2019-05-19T22:04:10.833Z,15.72
2019-05-19T22:06:42.202Z,16.70
2019-05-19T22:09:11.982Z,17.95
2019-05-19T22:11:41.780Z,21.75
2019-05-19T22:14:11.582Z,19.82
2019-05-19T22:16:41.315Z,16.05
2019-05-19T22:19:11.140Z,18.40
2019-05-19T22:21:40.894Z,17.50
2019-05-19T22:24:10.726Z,17.52
2019-05-19T22:26:40.491Z,16.62
2019-05-19T22:29:10.308Z,19.90
2019-05-19T22:31:40.092Z,19.85
2019-05-19T22:34:09.867Z,20.00
2019-05-19T22:36:39.612Z,18.67
2019-05-19T22:39:09.449Z,24.50
2019-05-19T22:41:39.239Z,21.48
2019-05-19T22:44:09.029Z,18.70
2019-05-19T22:46:38.823Z,18.07
2019-05-19T22:49:08.572Z,18.80
2019-05-19T22:51:38.378Z,21.65
2019-05-19T22:54:08.120Z,18.73
2019-05-19T22:56:37.934Z,20.20
2019-05-19T22:59:18.890Z,23.38
2019-05-19T23:01:51.102Z,24.37
2019-05-19T23:04:10.587Z,23.22
2019-05-19T23:06:40.394Z,20.27
2019-05-19T23:09:10.153Z,21.17
2019-05-19T23:11:39.973Z,21.97
2019-05-19T23:14:09.736Z,21.37
2019-05-19T23:16:39.525Z,22.50
2019-05-19T23:19:09.311Z,24.25
2019-05-19T23:21:39.095Z,20.90
2019-05-19T23:24:08.974Z,22.05
2019-05-19T23:26:38.789Z,20.45
2019-05-19T23:29:08.505Z,22.00
2019-05-19T23:31:38.388Z,20.90
2019-05-19T23:34:08.177Z,18.87
2019-05-19T23:36:37.966Z,20.15
2019-05-19T23:39:07.994Z,22.48
2019-05-19T23:41:37.744Z,22.80
2019-05-19T23:44:07.573Z,22.82
2019-05-19T23:46:37.348Z,21.15
2019-05-19T23:49:07.151Z,22.85
2019-05-19T23:51:36.940Z,20.80
2019-05-19T23:54:06.709Z,22.77
2019-05-19T23:56:36.513Z,23.83
2019-05-19T23:59:06.318Z,21.45
